createdAt,value
2019-03-20T00:00:34.103Z,102283.20
2019-03-20T00:03:03.870Z,102287.50
2019-03-20T00:05:33.416Z,102292.91
2019-03-20T00:08:02.955Z,102292.62
2019-03-20T00:10:32.595Z,102298.84
2019-03-20T00:13:02.140Z,102297.41
2019-03-20T00:15:31.670Z,102305.55
2019-03-20T00:18:01.145Z,102314.00
2019-03-20T00:20:30.699Z,102304.41
2019-03-20T00:23:00.199Z,102303.59
2019-03-20T00:25:29.670Z,102300.55
2019-03-20T00:27:59.157Z,102301.88
2019-03-20T00:30:28.639Z,102302.64
2019-03-20T00:32:58.126Z,102297.14
2019-03-20T00:35:29.261Z,102300.63
2019-03-20T00:37:58.735Z,102305.78
2019-03-20T00:40:28.296Z,102306.26
2019-03-20T00:42:57.765Z,102307.33
2019-03-20T00:45:27.236Z,102303.72
2019-03-20T00:47:56.747Z,102308.88
2019-03-20T00:50:26.239Z,102307.98
2019-03-20T00:52:55.703Z,102309.90
2019-03-20T00:55:25.183Z,102306.04
2019-03-20T00:57:54.688Z,102313.91
2019-03-20T01:00:25.675Z,102298.66
2019-03-20T01:02:55.223Z,102303.80
2019-03-20T01:05:24.692Z,102311.66
2019-03-20T01:07:54.322Z,102308.65
2019-03-20T01:10:25.101Z,102316.81
2019-03-20T01:12:54.718Z,102306.70
2019-03-20T01:15:24.421Z,102307.98
2019-03-20T01:17:53.901Z,102312.33
2019-03-20T01:20:24.817Z,102307.40
2019-03-20T01:22:54.466Z,102317.47
2019-03-20T01:25:24.025Z,102314.16
2019-03-20T01:27:53.475Z,102307.87
2019-03-20T01:30:37.067Z,102308.13
2019-03-20T01:33:13.029Z,102311.66
2019-03-20T01:35:43.137Z,102314.38
2019-03-20T01:38:12.683Z,102312.73
2019-03-20T01:40:42.313Z,102315.99
2019-03-20T01:43:11.854Z,102313.28
2019-03-20T01:45:41.419Z,102306.48
2019-03-20T01:48:10.994Z,102303.75
2019-03-20T01:50:40.451Z,102299.38
2019-03-20T01:53:10.011Z,102284.94
2019-03-20T01:55:39.500Z,102295.01
2019-03-20T01:58:09.137Z,102307.25
2019-03-20T02:00:39.046Z,102303.94
2019-03-20T02:03:08.670Z,102303.64
2019-03-20T02:05:38.125Z,102303.05
2019-03-20T02:08:07.612Z,102297.31
2019-03-20T02:10:37.083Z,102302.75
2019-03-20T02:13:06.677Z,102304.63
2019-03-20T02:15:39.410Z,102303.27
2019-03-20T02:18:07.327Z,102304.89
2019-03-20T02:20:39.364Z,102311.69
2019-03-20T02:23:08.861Z,102311.39
2019-03-20T02:25:38.320Z,102311.09
2019-03-20T02:28:07.778Z,102309.44
2019-03-20T02:30:37.255Z,102307.19
2019-03-20T02:33:06.809Z,102306.87
2019-03-20T02:35:50.141Z,102325.09
2019-03-20T02:38:07.479Z,102328.03
2019-03-20T02:40:36.973Z,102320.94
2019-03-20T02:43:06.422Z,102326.08
2019-03-20T02:45:35.947Z,102327.14
2019-03-20T02:48:05.519Z,102330.41
2019-03-20T02:50:35.001Z,102328.97
2019-03-20T02:53:04.480Z,102330.58
2019-03-20T02:55:34.046Z,102326.13
2019-03-20T02:58:03.610Z,102320.65
2019-03-20T03:00:33.114Z,102325.25
2019-03-20T03:03:02.568Z,102320.88
2019-03-20T03:05:32.121Z,102320.58
2019-03-20T03:08:01.653Z,102312.97
2019-03-20T03:10:31.154Z,102314.84
2019-03-20T03:13:02.410Z,102315.69
2019-03-20T03:15:31.883Z,102314.55
2019-03-20T03:18:01.404Z,102318.63
2019-03-20T03:20:30.889Z,102311.83
2019-03-20T03:23:01.883Z,102309.88
2019-03-20T03:25:31.357Z,102315.31
2019-03-20T03:28:00.822Z,102311.19
2019-03-20T03:30:30.303Z,102311.19
2019-03-20T03:32:59.787Z,102311.41
2019-03-20T03:35:29.255Z,102307.87
2019-03-20T03:37:58.771Z,102311.11
2019-03-20T03:40:28.341Z,102309.45
2019-03-20T03:42:57.789Z,102316.25
2019-03-20T03:45:27.286Z,102318.67
2019-03-20T03:47:56.748Z,102327.89
2019-03-20T03:50:26.569Z,102320.55
2019-03-20T03:52:56.050Z,102326.23
2019-03-20T03:55:25.603Z,102328.66
2019-03-20T03:57:55.207Z,102331.08
2019-03-20T04:00:24.671Z,102337.58
2019-03-20T04:02:54.164Z,102338.09
2019-03-20T04:05:23.738Z,102343.77
2019-03-20T04:07:53.260Z,102354.09
2019-03-20T04:10:22.746Z,102349.20
2019-03-20T04:12:52.290Z,102350.27
2019-03-20T04:15:21.780Z,102356.77
2019-03-20T04:17:51.271Z,102358.13
2019-03-20T04:20:21.387Z,102345.90
2019-03-20T04:22:50.917Z,102348.31
2019-03-20T04:25:20.622Z,102345.30
2019-03-20T04:27:50.109Z,102348.83
2019-03-20T04:30:20.144Z,102346.12
2019-03-20T04:32:49.597Z,102347.72
2019-03-20T04:35:19.158Z,102346.36
2019-03-20T04:37:48.622Z,102348.78
2019-03-20T04:40:19.904Z,102352.86
2019-03-20T04:42:49.431Z,102357.45
2019-03-20T04:45:18.918Z,102357.70
2019-03-20T04:47:48.470Z,102358.81
2019-03-20T04:50:18.470Z,102361.78
2019-03-20T04:52:47.967Z,102359.36
2019-03-20T04:55:17.444Z,102370.23
2019-03-20T04:57:46.926Z,102367.52
2019-03-20T05:00:23.836Z,102366.16
2019-03-20T05:02:53.414Z,102363.43
2019-03-20T05:05:24.407Z,102362.84
2019-03-20T05:07:53.893Z,102355.20
2019-03-20T05:10:23.446Z,102359.27
2019-03-20T05:12:52.925Z,102361.99
2019-03-20T05:15:22.408Z,102362.54
2019-03-20T05:17:51.871Z,102362.54
2019-03-20T05:20:22.777Z,102363.30
2019-03-20T05:22:52.242Z,102362.45
2019-03-20T05:25:21.735Z,102363.00
2019-03-20T05:27:51.199Z,102360.28
2019-03-20T05:30:20.654Z,102364.36
2019-03-20T05:32:50.151Z,102363.30
2019-03-20T05:35:19.626Z,102369.03
2019-03-20T05:37:49.096Z,102375.83
2019-03-20T05:40:20.197Z,102374.77
2019-03-20T05:42:49.684Z,102380.50
2019-03-20T05:45:20.050Z,102378.89
2019-03-20T05:47:49.614Z,102380.55
2019-03-20T05:50:19.451Z,102381.69
2019-03-20T05:52:48.997Z,102389.08
2019-03-20T05:55:18.504Z,102392.09
2019-03-20T05:57:47.994Z,102397.28
2019-03-20T06:00:24.774Z,102392.45
2019-03-20T06:02:54.262Z,102399.84
2019-03-20T06:05:23.748Z,102391.47
2019-03-20T06:07:53.213Z,102396.66
2019-03-20T06:10:22.674Z,102392.87
2019-03-20T06:12:52.240Z,102386.16
2019-03-20T06:15:21.886Z,102392.19
2019-03-20T06:17:51.345Z,102393.63
2019-03-20T06:20:20.822Z,102406.21
2019-03-20T06:22:50.306Z,102406.05
2019-03-20T06:25:21.478Z,102408.89
2019-03-20T06:27:52.933Z,102409.56
2019-03-20T06:30:22.760Z,102410.75
2019-03-20T06:32:52.259Z,102412.02
2019-03-20T06:35:21.738Z,102412.95
2019-03-20T06:37:51.242Z,102412.02
2019-03-20T06:40:20.790Z,102413.27
2019-03-20T06:42:50.259Z,102416.71
2019-03-20T06:45:23.916Z,102420.14
2019-03-20T06:47:53.405Z,102426.59
2019-03-20T06:50:23.909Z,102442.42
2019-03-20T06:52:53.452Z,102440.73
2019-03-20T06:55:23.068Z,102429.85
2019-03-20T06:57:55.306Z,102432.31
2019-03-20T07:01:03.884Z,102430.39
2019-03-20T07:03:58.865Z,102428.53
2019-03-20T07:06:38.963Z,102434.64
2019-03-20T07:09:24.958Z,102425.75
2019-03-20T07:11:54.469Z,102431.84
2019-03-20T07:14:23.924Z,102436.01
2019-03-20T07:16:53.390Z,102435.48
2019-03-20T07:19:22.947Z,102435.27
2019-03-20T07:21:52.434Z,102428.19
2019-03-20T07:24:21.933Z,102431.48
2019-03-20T07:26:51.388Z,102434.50
2019-03-20T07:29:20.839Z,102439.75
2019-03-20T07:31:50.347Z,102437.55
2019-03-20T07:34:19.835Z,102443.02
2019-03-20T07:36:49.398Z,102445.41
2019-03-20T07:39:18.922Z,102447.78
2019-03-20T07:41:48.448Z,102445.23
2019-03-20T07:44:17.958Z,102440.18
2019-03-20T07:46:47.442Z,102449.37
2019-03-20T07:49:16.927Z,102453.59
2019-03-20T07:51:46.452Z,102453.73
2019-03-20T07:54:15.939Z,102457.67
2019-03-20T07:56:45.487Z,102456.12
2019-03-20T07:59:14.981Z,102447.98
2019-03-20T08:01:44.431Z,102438.12
2019-03-20T08:04:13.921Z,102451.70
2019-03-20T08:06:43.376Z,102452.61
2019-03-20T08:09:12.869Z,102450.46
2019-03-20T08:11:42.332Z,102452.73
2019-03-20T08:14:11.821Z,102446.99
2019-03-20T08:16:41.358Z,102450.59
2019-03-20T08:19:10.852Z,102458.30
2019-03-20T08:21:40.330Z,102454.45
2019-03-20T08:24:10.805Z,102460.54
2019-03-20T08:26:40.560Z,102452.02
2019-03-20T08:29:10.090Z,102460.81
2019-03-20T08:31:39.596Z,102461.08
2019-03-20T08:34:09.056Z,102457.48
2019-03-20T08:36:38.634Z,102466.02
2019-03-20T08:39:08.278Z,102463.80
2019-03-20T08:41:37.718Z,102473.67
2019-03-20T08:44:07.216Z,102475.31
2019-03-20T08:46:36.729Z,102470.89
2019-03-20T08:49:06.281Z,102465.08
2019-03-20T08:51:35.744Z,102474.37
2019-03-20T08:54:05.653Z,102471.84
2019-03-20T08:56:35.116Z,102474.55
2019-03-20T08:59:05.050Z,102478.89
2019-03-20T09:01:34.600Z,102491.80
2019-03-20T09:04:04.279Z,102489.24
2019-03-20T09:06:33.756Z,102492.47
2019-03-20T09:09:03.699Z,102489.64
2019-03-20T09:11:33.163Z,102490.09
2019-03-20T09:14:02.682Z,102493.88
2019-03-20T09:16:32.136Z,102492.13
2019-03-20T09:19:01.643Z,102497.31
2019-03-20T09:21:31.103Z,102495.53
2019-03-20T09:24:00.560Z,102495.70
2019-03-20T09:26:30.231Z,102493.39
2019-03-20T09:28:59.696Z,102495.78
2019-03-20T09:31:29.169Z,102490.14
2019-03-20T09:33:58.690Z,102499.69
2019-03-20T09:36:28.242Z,102502.05
2019-03-20T09:38:57.778Z,102500.81
2019-03-20T09:41:27.288Z,102502.89
2019-03-20T09:43:56.781Z,102499.12
2019-03-20T09:46:26.284Z,102497.02
2019-03-20T09:48:55.835Z,102501.83
2019-03-20T09:51:25.349Z,102495.31
2019-03-20T09:53:54.887Z,102487.91
2019-03-20T09:56:24.444Z,102494.05
2019-03-20T09:58:53.941Z,102495.23
2019-03-20T10:01:23.524Z,102493.10
2019-03-20T10:03:52.981Z,102490.45
2019-03-20T10:06:22.475Z,102491.06
2019-03-20T10:08:54.348Z,102484.02
2019-03-20T10:11:23.166Z,102480.80
2019-03-20T10:13:52.649Z,102480.61
2019-03-20T10:16:22.113Z,102482.95
2019-03-20T10:18:51.617Z,102477.23
2019-03-20T10:21:21.120Z,102476.70
2019-03-20T10:23:50.608Z,102473.78
2019-03-20T10:26:20.148Z,102468.86
2019-03-20T10:28:49.741Z,102477.77
2019-03-20T10:31:19.286Z,102475.05
2019-03-20T10:33:48.785Z,102474.23
2019-03-20T10:36:18.254Z,102473.75
2019-03-20T10:38:48.790Z,102473.03
2019-03-20T10:41:18.327Z,102476.48
2019-03-20T10:43:47.812Z,102477.50
2019-03-20T10:46:17.268Z,102462.62
2019-03-20T10:48:46.790Z,102478.39
2019-03-20T10:51:16.256Z,102479.94
2019-03-20T10:53:45.782Z,102478.96
2019-03-20T10:56:15.349Z,102470.76
2019-03-20T10:58:44.941Z,102465.83
2019-03-20T11:01:14.401Z,102465.83
2019-03-20T11:03:43.968Z,102475.16
2019-03-20T11:06:13.536Z,102472.75
2019-03-20T11:08:43.060Z,102471.98
2019-03-20T11:11:12.538Z,102473.98
2019-03-20T11:13:42.087Z,102473.78
2019-03-20T11:16:11.657Z,102469.67
2019-03-20T11:18:41.157Z,102470.28
2019-03-20T11:21:12.199Z,102472.27
2019-03-20T11:23:41.669Z,102467.90
2019-03-20T11:26:11.170Z,102468.80
2019-03-20T11:28:40.623Z,102467.30
2019-03-20T11:31:10.208Z,102464.95
2019-03-20T11:33:39.687Z,102458.44
2019-03-20T11:36:09.314Z,102457.55
2019-03-20T11:38:38.813Z,102460.87
2019-03-20T11:41:08.296Z,102460.08
2019-03-20T11:43:37.816Z,102472.00
2019-03-20T11:46:07.387Z,102477.50
2019-03-20T11:48:38.123Z,102480.53
2019-03-20T11:51:07.610Z,102466.53
2019-03-20T11:53:37.115Z,102466.73
2019-03-20T11:56:06.600Z,102459.62
2019-03-20T11:58:36.098Z,102461.75
2019-03-20T12:01:06.150Z,102462.40
2019-03-20T12:03:35.708Z,102464.22
2019-03-20T12:06:05.468Z,102461.93
2019-03-20T12:08:35.078Z,102468.48
2019-03-20T12:11:04.610Z,102459.48
2019-03-20T12:13:34.117Z,102450.98
2019-03-20T12:16:03.630Z,102444.45
2019-03-20T12:18:33.172Z,102449.50
2019-03-20T12:21:02.668Z,102438.73
2019-03-20T12:23:33.743Z,102436.27
2019-03-20T12:26:03.402Z,102425.22
2019-03-20T12:28:32.860Z,102436.42
2019-03-20T12:31:02.529Z,102439.56
2019-03-20T12:33:31.988Z,102437.75
2019-03-20T12:36:01.486Z,102438.72
2019-03-20T12:38:31.033Z,102436.25
2019-03-20T12:41:00.541Z,102445.51
2019-03-20T12:43:30.087Z,102443.87
2019-03-20T12:45:59.752Z,102437.70
2019-03-20T12:48:29.229Z,102432.43
2019-03-20T12:50:58.767Z,102436.67
2019-03-20T12:53:35.985Z,102429.52
2019-03-20T12:56:05.606Z,102429.09
2019-03-20T12:58:35.106Z,102437.38
2019-03-20T13:01:04.899Z,102441.31
2019-03-20T13:03:34.361Z,102443.70
2019-03-20T13:06:03.865Z,102444.61
2019-03-20T13:08:33.382Z,102447.15
2019-03-20T13:11:02.915Z,102444.61
2019-03-20T13:13:32.414Z,102440.91
2019-03-20T13:16:01.889Z,102439.76
2019-03-20T13:18:31.396Z,102438.84
2019-03-20T13:21:01.045Z,102437.94
2019-03-20T13:23:36.870Z,102434.00
2019-03-20T13:26:06.470Z,102427.27
2019-03-20T13:28:35.986Z,102426.13
2019-03-20T13:31:16.527Z,102416.61
2019-03-20T13:33:46.097Z,102414.97
2019-03-20T13:36:15.557Z,102421.27
2019-03-20T13:38:45.097Z,102420.84
2019-03-20T13:41:14.711Z,102426.58
2019-03-20T13:43:44.205Z,102423.69
2019-03-20T13:46:13.845Z,102421.38
2019-03-20T13:48:43.367Z,102420.50
2019-03-20T13:51:12.847Z,102418.75
2019-03-20T13:53:42.435Z,102412.38
2019-03-20T13:56:12.125Z,102415.64
2019-03-20T13:58:41.612Z,102413.34
2019-03-20T14:01:11.210Z,102413.34
2019-03-20T14:03:40.701Z,102419.39
2019-03-20T14:06:10.173Z,102422.66
2019-03-20T14:08:39.741Z,102426.01
2019-03-20T14:11:09.290Z,102422.42
2019-03-20T14:13:38.813Z,102420.78
2019-03-20T14:16:08.414Z,102424.73
2019-03-20T14:18:37.978Z,102419.16
2019-03-20T14:21:07.452Z,102426.36
2019-03-20T14:23:36.975Z,102427.75
2019-03-20T14:26:06.779Z,102427.52
2019-03-20T14:28:36.440Z,102420.30
2019-03-20T14:31:06.031Z,102419.71
2019-03-20T14:33:35.516Z,102414.14
2019-03-20T14:36:05.021Z,102416.25
2019-03-20T14:38:34.544Z,102413.06
2019-03-20T14:41:04.038Z,102417.16
2019-03-20T14:43:33.610Z,102423.22
2019-03-20T14:46:03.200Z,102418.12
2019-03-20T14:48:32.749Z,102414.74
2019-03-20T14:51:02.348Z,102413.70
2019-03-20T14:53:31.822Z,102420.44
2019-03-20T14:56:01.484Z,102414.02
2019-03-20T14:58:30.996Z,102410.99
2019-03-20T15:01:00.706Z,102407.16
2019-03-20T15:03:30.353Z,102411.16
2019-03-20T15:05:59.923Z,102410.11
2019-03-20T15:08:29.494Z,102413.47
2019-03-20T15:10:59.091Z,102411.51
2019-03-20T15:13:28.655Z,102404.06
2019-03-20T15:16:08.885Z,102400.79
2019-03-20T15:18:38.607Z,102396.61
2019-03-20T15:21:08.166Z,102395.22
2019-03-20T15:23:37.674Z,102396.84
2019-03-20T15:26:07.210Z,102392.80
2019-03-20T15:28:36.749Z,102396.41
2019-03-20T15:31:06.485Z,102387.81
2019-03-20T15:33:35.979Z,102387.81
2019-03-20T15:36:05.523Z,102386.73
2019-03-20T15:38:35.023Z,102383.47
2019-03-20T15:41:04.725Z,102392.42
2019-03-20T15:43:34.271Z,102380.80
2019-03-20T15:46:03.737Z,102380.80
2019-03-20T15:48:33.264Z,102389.95
2019-03-20T15:51:02.837Z,102379.40
2019-03-20T15:53:32.355Z,102383.10
2019-03-20T15:56:01.972Z,102381.88
2019-03-20T15:58:31.523Z,102382.89
2019-03-20T16:01:01.137Z,102382.25
2019-03-20T16:03:38.026Z,102380.92
2019-03-20T16:06:07.543Z,102378.16
2019-03-20T16:08:37.192Z,102382.95
2019-03-20T16:11:09.714Z,102386.34
2019-03-20T16:13:39.190Z,102380.86
2019-03-20T16:16:08.725Z,102384.25
2019-03-20T16:18:38.441Z,102374.86
2019-03-20T16:21:08.039Z,102370.91
2019-03-20T16:23:37.552Z,102379.28
2019-03-20T16:26:07.127Z,102377.34
2019-03-20T16:28:36.599Z,102375.14
2019-03-20T16:31:06.312Z,102381.75
2019-03-20T16:33:35.914Z,102378.64
2019-03-20T16:36:05.541Z,102376.69
2019-03-20T16:38:35.073Z,102375.21
2019-03-20T16:41:04.598Z,102380.45
2019-03-20T16:43:34.199Z,102383.14
2019-03-20T16:46:03.693Z,102379.13
2019-03-20T16:48:33.209Z,102388.44
2019-03-20T16:51:02.744Z,102388.84
2019-03-20T16:53:32.256Z,102394.25
2019-03-20T16:56:01.720Z,102391.84
2019-03-20T16:58:32.141Z,102389.46
2019-03-20T17:01:01.657Z,102396.53
2019-03-20T17:03:31.186Z,102393.35
2019-03-20T17:06:00.775Z,102394.56
2019-03-20T17:08:30.268Z,102399.70
2019-03-20T17:10:59.950Z,102406.22
2019-03-20T17:13:29.443Z,102417.73
2019-03-20T17:15:59.004Z,102410.69
2019-03-20T17:18:28.578Z,102417.19
2019-03-20T17:20:58.251Z,102416.53
2019-03-20T17:23:27.973Z,102408.65
2019-03-20T17:25:57.572Z,102414.59
2019-03-20T17:28:27.313Z,102422.48
2019-03-20T17:30:56.854Z,102417.95
2019-03-20T17:33:26.437Z,102411.49
2019-03-20T17:35:55.935Z,102408.66
2019-03-20T17:38:25.451Z,102414.98
2019-03-20T17:40:54.965Z,102411.59
2019-03-20T17:43:24.540Z,102402.94
2019-03-20T17:45:54.490Z,102409.77
2019-03-20T17:48:24.063Z,102412.26
2019-03-20T17:50:53.771Z,102418.86
2019-03-20T17:53:23.346Z,102420.50
2019-03-20T17:55:53.045Z,102420.16
2019-03-20T17:58:22.621Z,102424.05
2019-03-20T18:00:53.895Z,102427.35
2019-03-20T18:03:23.498Z,102425.44
2019-03-20T18:05:53.109Z,102427.41
2019-03-20T18:08:22.695Z,102427.66
2019-03-20T18:10:52.190Z,102437.06
2019-03-20T18:13:21.797Z,102434.60
2019-03-20T18:15:51.318Z,102430.16
2019-03-20T18:18:20.924Z,102438.47
2019-03-20T18:20:50.496Z,102438.17
2019-03-20T18:23:20.145Z,102447.00
2019-03-20T18:25:49.702Z,102443.59
2019-03-20T18:28:21.613Z,102451.86
2019-03-20T18:30:50.738Z,102453.97
2019-03-20T18:33:21.177Z,102459.09
2019-03-20T18:35:51.487Z,102459.01
2019-03-20T18:38:21.260Z,102464.73
2019-03-20T18:40:50.929Z,102469.88
2019-03-20T18:43:20.629Z,102469.18
2019-03-20T18:45:52.309Z,102471.28
2019-03-20T18:48:21.674Z,102479.42
2019-03-20T18:50:51.453Z,102482.03
2019-03-20T18:53:21.208Z,102481.31
2019-03-20T18:55:50.878Z,102486.94
2019-03-20T18:58:20.631Z,102492.82
2019-03-20T19:00:50.419Z,102492.92
2019-03-20T19:03:27.621Z,102492.98
2019-03-20T19:06:17.064Z,102498.84
2019-03-20T19:08:46.806Z,102500.01
2019-03-20T19:11:16.510Z,102497.91
2019-03-20T19:13:46.288Z,102494.38
2019-03-20T19:16:16.027Z,102495.53
2019-03-20T19:18:45.759Z,102497.78
2019-03-20T19:21:15.362Z,102502.22
2019-03-20T19:23:44.987Z,102502.25
2019-03-20T19:26:14.647Z,102501.17
2019-03-20T19:28:44.446Z,102494.58
2019-03-20T19:31:14.143Z,102500.92
2019-03-20T19:33:43.814Z,102508.67
2019-03-20T19:36:13.521Z,102507.89
2019-03-20T19:38:43.068Z,102500.47
2019-03-20T19:41:12.581Z,102504.89
2019-03-20T19:43:42.312Z,102508.75
2019-03-20T19:46:12.021Z,102510.98
2019-03-20T19:48:41.649Z,102516.23
2019-03-20T19:51:11.212Z,102517.09
2019-03-20T19:53:40.926Z,102513.25
2019-03-20T19:56:10.654Z,102512.98
2019-03-20T19:58:40.196Z,102519.31
2019-03-20T20:01:09.798Z,102515.20
2019-03-20T20:03:39.396Z,102519.34
2019-03-20T20:06:11.268Z,102527.88
2019-03-20T20:08:40.318Z,102527.04
2019-03-20T20:11:09.922Z,102525.66
2019-03-20T20:13:39.684Z,102517.71
2019-03-20T20:16:09.435Z,102525.69
2019-03-20T20:18:39.142Z,102528.98
2019-03-20T20:21:08.806Z,102533.65
2019-03-20T20:23:38.415Z,102525.13
2019-03-20T20:26:08.081Z,102532.00
2019-03-20T20:28:37.810Z,102525.42
2019-03-20T20:31:07.519Z,102532.82
2019-03-20T20:33:38.224Z,102531.45
2019-03-20T20:36:07.932Z,102529.22
2019-03-20T20:38:37.420Z,102530.32
2019-03-20T20:41:06.996Z,102531.69
2019-03-20T20:43:36.451Z,102529.77
2019-03-20T20:46:06.112Z,102528.08
2019-03-20T20:48:35.619Z,102530.82
2019-03-20T20:51:05.214Z,102535.75
2019-03-20T20:53:34.779Z,102537.11
2019-03-20T20:56:04.282Z,102533.80
2019-03-20T20:58:33.745Z,102529.92
2019-03-20T21:01:03.247Z,102526.35
2019-03-20T21:03:32.731Z,102522.75
2019-03-20T21:06:02.219Z,102529.06
2019-03-20T21:08:31.676Z,102524.64
2019-03-20T21:11:01.198Z,102529.28
2019-03-20T21:13:40.655Z,102517.16
2019-03-20T21:16:10.137Z,102522.91
2019-03-20T21:19:05.528Z,102521.23
2019-03-20T21:21:35.749Z,102525.88
2019-03-20T21:24:23.089Z,102531.34
2019-03-20T21:27:41.087Z,102532.69
2019-03-20T21:30:44.826Z,102534.28
2019-03-20T21:33:21.625Z,102532.32
2019-03-20T21:36:18.444Z,102535.03
2019-03-20T21:38:47.957Z,102530.05
2019-03-20T21:41:30.789Z,102527.80
2019-03-20T21:44:13.715Z,102534.91
2019-03-20T21:47:31.798Z,102535.16
2019-03-20T21:50:39.278Z,102539.52
2019-03-20T21:53:12.789Z,102539.20
2019-03-20T21:56:21.930Z,102538.87
2019-03-20T21:59:08.090Z,102536.38
2019-03-20T22:02:16.692Z,102539.08
2019-03-20T22:04:46.166Z,102538.48
2019-03-20T22:07:15.669Z,102533.80
2019-03-20T22:10:26.480Z,102528.56
2019-03-20T22:13:24.995Z,102541.13
2019-03-20T22:16:11.268Z,102533.44
2019-03-20T22:19:09.691Z,102532.83
2019-03-20T22:22:20.319Z,102536.91
2019-03-20T22:25:25.883Z,102530.85
2019-03-20T22:28:51.629Z,102532.98
2019-03-20T22:31:21.848Z,102537.33
2019-03-20T22:34:27.721Z,102538.66
2019-03-20T22:36:57.208Z,102534.25
2019-03-20T22:40:10.698Z,102537.48
2019-03-20T22:42:50.669Z,102534.45
2019-03-20T22:45:45.881Z,102531.67
2019-03-20T22:48:34.629Z,102536.30
2019-03-20T22:51:17.665Z,102538.73
2019-03-20T22:54:00.594Z,102537.08
2019-03-20T22:57:03.513Z,102533.78
2019-03-20T22:59:33.047Z,102535.66
2019-03-20T23:02:16.377Z,102518.67
2019-03-20T23:04:56.697Z,102522.48
2019-03-20T23:07:29.252Z,102525.47
2019-03-20T23:09:58.726Z,102532.87
2019-03-20T23:12:28.200Z,102536.41
2019-03-20T23:14:57.678Z,102547.07
2019-03-20T23:17:27.139Z,102536.13
2019-03-20T23:19:56.699Z,102540.19
2019-03-20T23:22:26.172Z,102536.08
2019-03-20T23:24:55.654Z,102536.89
2019-03-20T23:27:27.000Z,102534.95
2019-03-20T23:29:56.510Z,102540.14
2019-03-20T23:32:26.091Z,102543.96
2019-03-20T23:34:55.604Z,102546.41
2019-03-20T23:37:25.237Z,102539.00
2019-03-20T23:39:54.693Z,102539.80
2019-03-20T23:42:24.216Z,102551.55
2019-03-20T23:44:53.873Z,102544.92
2019-03-20T23:47:28.066Z,102547.37
2019-03-20T23:49:57.619Z,102549.25
2019-03-20T23:52:27.166Z,102545.89
2019-03-20T23:54:56.801Z,102542.01
2019-03-20T23:57:27.909Z,102549.07
2019-03-20T23:59:57.632Z,102543.82
